Cumming, Iowa
Current Conditions -  °F | °C
As of 9:54 AM on Wednesday 28 Jan 2015 (Local Time) from KDSM Reporting Station
Haze Haze  
Wind Chill: 22°   Ceiling: 26000
Heat Index: 33°   Visibility: 5mi
Dew Point: 28°   Wind: 17mph
Humidity: 82%   Direction: 140°SE
Pressure: 29.94"   Gusts: NA
Location:  41.48°N, 93.76°W
Report Text: KDSM 281554Z 14015KT 5SM BR SCT009 BKN260 01/M02 A2994 RMK AO2 SLP149 SCT V BKN T00061022
Loading
Personal Weather Stations






























Interactive Weather Map New forecast layout! Learn more

10-Day Weather Forecast

Advertisements
Track Severe Weather on mobile